sensor_id;sensor_type;location;lat;lon;timestamp;P1;P2;P0
65680;PMS5003;61747;54.966;73.394;2022-10-16T00:01:08;6.00;3.00;1.00
65680;PMS5003;61747;54.966;73.394;2022-10-16T00:03:34;5.50;3.00;1.25
65680;PMS5003;61747;54.966;73.394;2022-10-16T00:06:00;3.50;3.00;1.00
65680;PMS5003;61747;54.966;73.394;2022-10-16T00:08:26;4.00;3.00;0.00
65680;PMS5003;61747;54.966;73.394;2022-10-16T00:10:52;4.50;3.00;1.00
65680;PMS5003;61747;54.966;73.394;2022-10-16T00:13:18;5.00;3.00;2.00
65680;PMS5003;61747;54.966;73.394;2022-10-16T00:15:45;3.00;2.00;0.50
65680;PMS5003;61747;54.966;73.394;2022-10-16T00:18:11;3.00;2.00;0.00
65680;PMS5003;61747;54.966;73.394;2022-10-16T00:20:37;3.00;2.67;0.00
65680;PMS5003;61747;54.966;73.394;2022-10-16T00:23:08;3.00;3.00;0.00
65680;PMS5003;61747;54.966;73.394;2022-10-16T00:25:39;5.00;3.00;0.00
65680;PMS5003;61747;54.966;73.394;2022-10-16T00:28:05;4.00;3.33;1.00
65680;PMS5003;61747;54.966;73.394;2022-10-16T00:30:30;2.00;2.00;0.00
65680;PMS5003;61747;54.966;73.394;2022-10-16T00:33:06;3.00;3.00;0.00
65680;PMS5003;61747;54.966;73.394;2022-10-16T00:35:32;3.00;3.00;0.00
65680;PMS5003;61747;54.966;73.394;2022-10-16T00:38:02;5.50;3.50;1.00
65680;PMS5003;61747;54.966;73.394;2022-10-16T00:40:28;3.25;3.00;0.00
65680;PMS5003;61747;54.966;73.394;2022-10-16T00:42:54;3.00;3.00;0.00
65680;PMS5003;61747;54.966;73.394;2022-10-16T00:45:20;3.00;2.33;0.00
65680;PMS5003;61747;54.966;73.394;2022-10-16T00:47:55;3.75;3.00;0.00
65680;PMS5003;61747;54.966;73.394;2022-10-16T00:50:30;4.00;3.00;0.00
65680;PMS5003;61747;54.966;73.394;2022-10-16T00:53:06;4.25;4.00;0.00
65680;PMS5003;61747;54.966;73.394;2022-10-16T00:55:32;7.00;5.25;0.00
65680;PMS5003;61747;54.966;73.394;2022-10-16T00:57:58;10.00;7.00;2.00
65680;PMS5003;61747;54.966;73.394;2022-10-16T01:00:33;7.00;5.00;2.00
65680;PMS5003;61747;54.966;73.394;2022-10-16T01:03:00;6.67;5.00;3.00
65680;PMS5003;61747;54.966;73.394;2022-10-16T01:05:42;10.50;9.25;3.00
65680;PMS5003;61747;54.966;73.394;2022-10-16T01:08:18;14.50;11.25;3.75
65680;PMS5003;61747;54.966;73.394;2022-10-16T01:13:34;13.00;7.00;3.00
65680;PMS5003;61747;54.966;73.394;2022-10-16T01:21:37;14.00;8.00;2.00
65680;PMS5003;61747;54.966;73.394;2022-10-16T01:29:13;6.00;4.50;2.00
65680;PMS5003;61747;54.966;73.394;2022-10-16T01:31:41;6.00;5.00;2.00
65680;PMS5003;61747;54.966;73.394;2022-10-16T01:36:51;4.50;3.75;1.00
65680;PMS5003;61747;54.966;73.394;2022-10-16T01:39:19;3.50;3.00;0.00
65680;PMS5003;61747;54.966;73.394;2022-10-16T01:41:49;7.00;5.00;1.00
65680;PMS5003;61747;54.966;73.394;2022-10-16T01:46:43;3.00;2.50;0.00
65680;PMS5003;61747;54.966;73.394;2022-10-16T01:49:11;3.25;3.00;0.00
65680;PMS5003;61747;54.966;73.394;2022-10-16T01:51:37;3.00;3.00;0.00
65680;PMS5003;61747;54.966;73.394;2022-10-16T01:54:04;4.67;4.33;1.00
65680;PMS5003;61747;54.966;73.394;2022-10-16T01:56:30;3.00;3.00;0.00
65680;PMS5003;61747;54.966;73.394;2022-10-16T01:59:04;6.00;5.00;0.00
65680;PMS5003;61747;54.966;73.394;2022-10-16T02:01:37;3.00;3.00;0.00
65680;PMS5003;61747;54.966;73.394;2022-10-16T02:04:07;6.25;4.75;2.00
65680;PMS5003;61747;54.966;73.394;2022-10-16T02:06:34;9.00;7.00;3.00
65680;PMS5003;61747;54.966;73.394;2022-10-16T02:09:01;5.00;3.50;2.00
65680;PMS5003;61747;54.966;73.394;2022-10-16T02:11:26;4.00;3.25;2.00
65680;PMS5003;61747;54.966;73.394;2022-10-16T02:13:53;3.67;3.00;1.00
65680;PMS5003;61747;54.966;73.394;2022-10-16T02:16:20;4.00;4.00;1.75
65680;PMS5003;61747;54.966;73.394;2022-10-16T02:18:50;8.25;6.25;3.00
65680;PMS5003;61747;54.966;73.394;2022-10-16T02:21:28;10.50;6.50;3.00
65680;PMS5003;61747;54.966;73.394;2022-10-16T02:26:35;7.00;4.67;1.00
65680;PMS5003;61747;54.966;73.394;2022-10-16T02:29:14;7.00;6.25;2.00
65680;PMS5003;61747;54.966;73.394;2022-10-16T02:31:46;6.75;6.00;2.00
65680;PMS5003;61747;54.966;73.394;2022-10-16T02:34:14;6.00;5.25;3.00
65680;PMS5003;61747;54.966;73.394;2022-10-16T02:36:41;6.50;5.50;2.75
65680;PMS5003;61747;54.966;73.394;2022-10-16T02:39:07;8.25;7.00;4.00
65680;PMS5003;61747;54.966;73.394;2022-10-16T02:41:38;10.75;8.00;4.00
65680;PMS5003;61747;54.966;73.394;2022-10-16T02:44:03;11.75;7.25;3.00
65680;PMS5003;61747;54.966;73.394;2022-10-16T02:46:40;6.00;5.25;3.00
65680;PMS5003;61747;54.966;73.394;2022-10-16T02:49:10;4.00;4.00;2.00
65680;PMS5003;61747;54.966;73.394;2022-10-16T02:51:40;7.00;5.50;2.25
65680;PMS5003;61747;54.966;73.394;2022-10-16T02:54:06;7.00;5.00;3.00
65680;PMS5003;61747;54.966;73.394;2022-10-16T02:56:31;8.00;7.00;3.00
65680;PMS5003;61747;54.966;73.394;2022-10-16T02:59:07;9.00;7.00;3.00
65680;PMS5003;61747;54.966;73.394;2022-10-16T03:01:42;8.00;6.00;3.00
65680;PMS5003;61747;54.966;73.394;2022-10-16T03:04:08;14.00;9.33;5.67
65680;PMS5003;61747;54.966;73.394;2022-10-16T03:06:35;13.25;7.00;4.00
65680;PMS5003;61747;54.966;73.394;2022-10-16T03:09:01;13.33;7.00;3.00
65680;PMS5003;61747;54.966;73.394;2022-10-16T03:11:37;13.50;10.75;6.00
65680;PMS5003;61747;54.966;73.394;2022-10-16T03:14:03;15.33;12.00;5.33
65680;PMS5003;61747;54.966;73.394;2022-10-16T03:16:31;17.00;13.00;5.25
65680;PMS5003;61747;54.966;73.394;2022-10-16T03:18:56;15.00;12.00;4.67
65680;PMS5003;61747;54.966;73.394;2022-10-16T03:21:22;15.00;11.00;5.00
65680;PMS5003;61747;54.966;73.394;2022-10-16T03:23:53;12.00;7.00;3.25
65680;PMS5003;61747;54.966;73.394;2022-10-16T03:26:19;11.00;7.00;3.67
65680;PMS5003;61747;54.966;73.394;2022-10-16T03:28:54;10.00;7.00;3.00
65680;PMS5003;61747;54.966;73.394;2022-10-16T03:31:20;8.00;6.67;3.00
65680;PMS5003;61747;54.966;73.394;2022-10-16T03:33:46;10.00;7.50;3.00
65680;PMS5003;61747;54.966;73.394;2022-10-16T03:36:12;13.67;11.00;6.00
65680;PMS5003;61747;54.966;73.394;2022-10-16T03:38:37;17.00;15.00;7.00
65680;PMS5003;61747;54.966;73.394;2022-10-16T03:41:03;19.00;15.33;7.33
65680;PMS5003;61747;54.966;73.394;2022-10-16T03:43:29;19.00;16.00;7.00
65680;PMS5003;61747;54.966;73.394;2022-10-16T03:45:55;16.25;13.00;6.25
65680;PMS5003;61747;54.966;73.394;2022-10-16T03:48:31;15.50;12.00;5.00
65680;PMS5003;61747;54.966;73.394;2022-10-16T03:50:57;17.00;13.00;7.00
65680;PMS5003;61747;54.966;73.394;2022-10-16T03:53:23;17.50;13.50;7.00
65680;PMS5003;61747;54.966;73.394;2022-10-16T03:55:49;15.50;13.00;5.25
65680;PMS5003;61747;54.966;73.394;2022-10-16T03:58:15;14.00;13.00;5.00
65680;PMS5003;61747;54.966;73.394;2022-10-16T04:00:41;17.00;11.00;7.00
65680;PMS5003;61747;54.966;73.394;2022-10-16T04:03:12;14.75;8.50;4.25
65680;PMS5003;61747;54.966;73.394;2022-10-16T04:05:37;13.00;8.00;4.00
65680;PMS5003;61747;54.966;73.394;2022-10-16T04:08:03;13.75;8.50;4.00
65680;PMS5003;61747;54.966;73.394;2022-10-16T04:10:29;17.00;13.25;8.00
65680;PMS5003;61747;54.966;73.394;2022-10-16T04:13:05;19.25;14.50;8.00
65680;PMS5003;61747;54.966;73.394;2022-10-16T04:15:31;17.00;14.00;5.00
65680;PMS5003;61747;54.966;73.394;2022-10-16T04:17:56;15.00;12.00;4.00
65680;PMS5003;61747;54.966;73.394;2022-10-16T04:20:27;15.25;12.75;6.00
65680;PMS5003;61747;54.966;73.394;2022-10-16T04:22:53;15.00;12.33;5.33
65680;PMS5003;61747;54.966;73.394;2022-10-16T04:25:23;15.75;12.00;5.00
65680;PMS5003;61747;54.966;73.394;2022-10-16T04:27:49;16.33;11.00;5.00
65680;PMS5003;61747;54.966;73.394;2022-10-16T04:30:14;17.00;11.00;5.00
65680;PMS5003;61747;54.966;73.394;2022-10-16T04:32:40;15.00;7.67;5.00
65680;PMS5003;61747;54.966;73.394;2022-10-16T04:35:09;11.25;7.00;3.00
65680;PMS5003;61747;54.966;73.394;2022-10-16T04:37:40;10.00;7.00;4.00
65680;PMS5003;61747;54.966;73.394;2022-10-16T04:40:06;7.00;6.00;3.00
65680;PMS5003;61747;54.966;73.394;2022-10-16T04:42:41;7.00;6.75;3.25
65680;PMS5003;61747;54.966;73.394;2022-10-16T04:45:07;8.00;7.25;4.25
65680;PMS5003;61747;54.966;73.394;2022-10-16T04:47:33;11.50;10.50;5.00
65680;PMS5003;61747;54.966;73.394;2022-10-16T04:49:59;15.00;13.33;5.67
65680;PMS5003;61747;54.966;73.394;2022-10-16T04:52:28;14.25;13.00;5.00
65680;PMS5003;61747;54.966;73.394;2022-10-16T04:54:59;17.00;13.00;5.75
65680;PMS5003;61747;54.966;73.394;2022-10-16T04:57:28;11.00;7.75;2.00
65680;PMS5003;61747;54.966;73.394;2022-10-16T05:00:04;5.25;5.25;2.50
65680;PMS5003;61747;54.966;73.394;2022-10-16T05:02:30;8.50;6.00;4.00
65680;PMS5003;61747;54.966;73.394;2022-10-16T05:04:56;12.33;10.33;6.67
65680;PMS5003;61747;54.966;73.394;2022-10-16T05:07:21;15.67;12.00;5.00
65680;PMS5003;61747;54.966;73.394;2022-10-16T05:09:47;14.00;11.33;5.00
65680;PMS5003;61747;54.966;73.394;2022-10-16T05:12:22;11.25;8.00;4.00
65680;PMS5003;61747;54.966;73.394;2022-10-16T05:14:58;8.00;6.00;5.00
65680;PMS5003;61747;54.966;73.394;2022-10-16T05:17:25;11.00;9.75;4.00
65680;PMS5003;61747;54.966;73.394;2022-10-16T05:19:51;10.25;7.00;3.00
65680;PMS5003;61747;54.966;73.394;2022-10-16T05:22:17;7.33;6.00;3.00
65680;PMS5003;61747;54.966;73.394;2022-10-16T05:24:43;7.75;5.00;3.00
65680;PMS5003;61747;54.966;73.394;2022-10-16T05:27:08;9.33;7.00;5.00
65680;PMS5003;61747;54.966;73.394;2022-10-16T05:29:35;10.00;7.00;4.00
65680;PMS5003;61747;54.966;73.394;2022-10-16T05:32:00;8.00;6.00;3.33
65680;PMS5003;61747;54.966;73.394;2022-10-16T05:34:26;9.00;7.00;4.00
65680;PMS5003;61747;54.966;73.394;2022-10-16T05:36:52;9.00;7.00;3.67
65680;PMS5003;61747;54.966;73.394;2022-10-16T05:39:23;8.25;6.25;3.75
65680;PMS5003;61747;54.966;73.394;2022-10-16T05:41:49;8.50;7.00;4.00
65680;PMS5003;61747;54.966;73.394;2022-10-16T05:44:25;8.75;8.00;5.00
65680;PMS5003;61747;54.966;73.394;2022-10-16T05:46:55;9.00;6.00;2.00
65680;PMS5003;61747;54.966;73.394;2022-10-16T05:49:20;7.25;7.00;4.00
65680;PMS5003;61747;54.966;73.394;2022-10-16T05:51:46;10.00;8.67;4.67
65680;PMS5003;61747;54.966;73.394;2022-10-16T05:54:12;11.00;8.00;5.00
65680;PMS5003;61747;54.966;73.394;2022-10-16T05:56:38;10.75;8.00;5.00
65680;PMS5003;61747;54.966;73.394;2022-10-16T05:59:03;11.00;10.00;5.00
65680;PMS5003;61747;54.966;73.394;2022-10-16T06:01:35;12.00;10.00;5.00
65680;PMS5003;61747;54.966;73.394;2022-10-16T06:04:01;11.00;8.00;5.00
65680;PMS5003;61747;54.966;73.394;2022-10-16T06:06:27;13.50;11.00;5.00
65680;PMS5003;61747;54.966;73.394;2022-10-16T06:08:54;13.50;11.00;6.00
65680;PMS5003;61747;54.966;73.394;2022-10-16T06:11:21;16.00;10.50;6.00
65680;PMS5003;61747;54.966;73.394;2022-10-16T06:13:50;15.00;12.00;5.00
65680;PMS5003;61747;54.966;73.394;2022-10-16T06:16:16;15.00;12.00;5.00
65680;PMS5003;61747;54.966;73.394;2022-10-16T06:18:43;16.00;11.00;5.00
65680;PMS5003;61747;54.966;73.394;2022-10-16T06:21:10;11.67;9.00;4.67
65680;PMS5003;61747;54.966;73.394;2022-10-16T06:23:36;15.00;13.00;5.00
65680;PMS5003;61747;54.966;73.394;2022-10-16T06:26:13;13.00;10.00;3.00
65680;PMS5003;61747;54.966;73.394;2022-10-16T06:28:49;10.25;8.50;4.25
65680;PMS5003;61747;54.966;73.394;2022-10-16T06:31:16;14.00;10.00;5.00
65680;PMS5003;61747;54.966;73.394;2022-10-16T06:33:49;12.00;9.50;4.75
65680;PMS5003;61747;54.966;73.394;2022-10-16T06:36:15;12.00;9.75;5.00
65680;PMS5003;61747;54.966;73.394;2022-10-16T06:38:47;12.00;8.00;5.00
65680;PMS5003;61747;54.966;73.394;2022-10-16T06:41:13;10.67;8.67;5.00
65680;PMS5003;61747;54.966;73.394;2022-10-16T06:43:42;10.00;8.00;5.00
65680;PMS5003;61747;54.966;73.394;2022-10-16T06:46:16;11.25;9.50;4.25
65680;PMS5003;61747;54.966;73.394;2022-10-16T06:48:42;11.00;8.00;5.00
65680;PMS5003;61747;54.966;73.394;2022-10-16T06:51:09;11.00;8.00;5.00
65680;PMS5003;61747;54.966;73.394;2022-10-16T06:53:36;13.00;10.25;5.00
65680;PMS5003;61747;54.966;73.394;2022-10-16T06:58:37;11.00;8.00;4.67
65680;PMS5003;61747;54.966;73.394;2022-10-16T07:01:09;10.00;10.00;5.00
65680;PMS5003;61747;54.966;73.394;2022-10-16T07:03:39;12.00;10.00;5.00
65680;PMS5003;61747;54.966;73.394;2022-10-16T07:06:05;14.25;11.00;5.00
65680;PMS5003;61747;54.966;73.394;2022-10-16T07:08:33;13.00;10.50;5.00
65680;PMS5003;61747;54.966;73.394;2022-10-16T07:10:59;10.00;7.00;5.00
65680;PMS5003;61747;54.966;73.394;2022-10-16T07:13:32;6.00;5.00;3.00
65680;PMS5003;61747;54.966;73.394;2022-10-16T07:16:15;4.25;3.25;0.00
65680;PMS5003;61747;54.966;73.394;2022-10-16T07:18:41;3.50;3.00;1.00
65680;PMS5003;61747;54.966;73.394;2022-10-16T07:21:10;4.00;3.00;1.00
65680;PMS5003;61747;54.966;73.394;2022-10-16T07:23:50;4.00;3.00;0.00
65680;PMS5003;61747;54.966;73.394;2022-10-16T07:26:16;4.00;1.00;0.00
65680;PMS5003;61747;54.966;73.394;2022-10-16T07:28:42;5.00;1.00;0.00
65680;PMS5003;61747;54.966;73.394;2022-10-16T07:31:10;4.00;2.00;0.00
65680;PMS5003;61747;54.966;73.394;2022-10-16T07:33:39;4.25;3.50;0.00
65680;PMS5003;61747;54.966;73.394;2022-10-16T07:36:05;5.00;4.00;0.00
65680;PMS5003;61747;54.966;73.394;2022-10-16T07:38:31;6.00;4.00;0.00
65680;PMS5003;61747;54.966;73.394;2022-10-16T07:41:01;4.67;3.00;0.00
65680;PMS5003;61747;54.966;73.394;2022-10-16T07:43:31;5.50;4.00;0.00
65680;PMS5003;61747;54.966;73.394;2022-10-16T07:45:57;4.00;3.00;0.00
65680;PMS5003;61747;54.966;73.394;2022-10-16T07:48:23;4.00;3.00;0.00
65680;PMS5003;61747;54.966;73.394;2022-10-16T07:50:49;3.50;3.00;0.00
65680;PMS5003;61747;54.966;73.394;2022-10-16T07:53:15;4.75;2.00;0.00
65680;PMS5003;61747;54.966;73.394;2022-10-16T07:55:47;5.00;2.75;0.00
65680;PMS5003;61747;54.966;73.394;2022-10-16T07:58:12;5.00;3.75;0.75
65680;PMS5003;61747;54.966;73.394;2022-10-16T08:00:38;3.00;3.00;1.00
65680;PMS5003;61747;54.966;73.394;2022-10-16T08:03:09;1.00;0.00;0.00
65680;PMS5003;61747;54.966;73.394;2022-10-16T08:05:40;2.75;2.50;0.00
65680;PMS5003;61747;54.966;73.394;2022-10-16T08:08:13;3.00;3.00;0.00
65680;PMS5003;61747;54.966;73.394;2022-10-16T08:10:39;3.00;3.00;0.00
65680;PMS5003;61747;54.966;73.394;2022-10-16T08:13:16;4.00;3.50;0.00
65680;PMS5003;61747;54.966;73.394;2022-10-16T08:15:42;5.00;4.00;1.00
65680;PMS5003;61747;54.966;73.394;2022-10-16T08:18:12;5.00;4.00;1.00
65680;PMS5003;61747;54.966;73.394;2022-10-16T08:20:38;5.00;5.00;1.00
65680;PMS5003;61747;54.966;73.394;2022-10-16T08:23:04;4.25;4.25;1.00
65680;PMS5003;61747;54.966;73.394;2022-10-16T08:25:39;4.00;4.00;1.00
65680;PMS5003;61747;54.966;73.394;2022-10-16T08:28:09;3.00;3.00;0.00
65680;PMS5003;61747;54.966;73.394;2022-10-16T08:30:35;5.00;4.75;0.00
65680;PMS5003;61747;54.966;73.394;2022-10-16T08:33:02;5.00;4.75;0.00
65680;PMS5003;61747;54.966;73.394;2022-10-16T08:35:28;7.00;5.00;2.00
65680;PMS5003;61747;54.966;73.394;2022-10-16T08:38:03;6.00;5.00;2.00
65680;PMS5003;61747;54.966;73.394;2022-10-16T08:40:30;6.75;5.50;2.00
65680;PMS5003;61747;54.966;73.394;2022-10-16T08:45:35;6.75;5.00;2.00
65680;PMS5003;61747;54.966;73.394;2022-10-16T08:50:30;6.33;5.00;1.67
65680;PMS5003;61747;54.966;73.394;2022-10-16T08:52:57;6.00;4.00;3.00
65680;PMS5003;61747;54.966;73.394;2022-10-16T08:55:33;8.00;6.00;4.00
65680;PMS5003;61747;54.966;73.394;2022-10-16T08:58:05;7.25;6.50;3.00
65680;PMS5003;61747;54.966;73.394;2022-10-16T09:00:36;8.25;7.25;3.00
65680;PMS5003;61747;54.966;73.394;2022-10-16T09:08:43;10.00;8.00;3.50
65680;PMS5003;61747;54.966;73.394;2022-10-16T09:11:20;8.50;7.50;3.00
65680;PMS5003;61747;54.966;73.394;2022-10-16T09:16:32;7.00;7.00;3.00
65680;PMS5003;61747;54.966;73.394;2022-10-16T09:21:36;6.00;5.00;2.75
65680;PMS5003;61747;54.966;73.394;2022-10-16T09:24:12;8.00;6.00;2.00
65680;PMS5003;61747;54.966;73.394;2022-10-16T09:26:39;6.00;5.00;3.00
65680;PMS5003;61747;54.966;73.394;2022-10-16T09:29:04;5.50;5.00;3.00
65680;PMS5003;61747;54.966;73.394;2022-10-16T09:31:30;6.00;6.00;2.00
65680;PMS5003;61747;54.966;73.394;2022-10-16T09:33:59;6.00;5.00;3.00
65680;PMS5003;61747;54.966;73.394;2022-10-16T09:36:34;6.50;6.50;3.75
65680;PMS5003;61747;54.966;73.394;2022-10-16T09:39:02;6.50;6.25;3.00
65680;PMS5003;61747;54.966;73.394;2022-10-16T09:41:28;6.00;5.00;2.00
65680;PMS5003;61747;54.966;73.394;2022-10-16T09:43:55;6.00;5.00;3.00
65680;PMS5003;61747;54.966;73.394;2022-10-16T09:46:24;5.00;5.00;2.50
65680;PMS5003;61747;54.966;73.394;2022-10-16T09:48:51;6.50;5.00;2.00
65680;PMS5003;61747;54.966;73.394;2022-10-16T09:53:46;6.00;6.00;4.00
65680;PMS5003;61747;54.966;73.394;2022-10-16T09:56:20;6.50;5.00;4.00
65680;PMS5003;61747;54.966;73.394;2022-10-16T09:58:54;7.75;6.50;4.00
65680;PMS5003;61747;54.966;73.394;2022-10-16T10:01:20;7.00;6.00;4.00
65680;PMS5003;61747;54.966;73.394;2022-10-16T10:03:55;6.00;5.00;4.00
65680;PMS5003;61747;54.966;73.394;2022-10-16T10:06:34;8.50;5.00;4.00
65680;PMS5003;61747;54.966;73.394;2022-10-16T10:09:42;6.25;5.25;3.00
65680;PMS5003;61747;54.966;73.394;2022-10-16T10:12:02;5.00;4.75;2.00
65680;PMS5003;61747;54.966;73.394;2022-10-16T10:14:38;4.00;4.00;2.00
65680;PMS5003;61747;54.966;73.394;2022-10-16T10:22:17;3.00;2.75;2.00
65680;PMS5003;61747;54.966;73.394;2022-10-16T10:35:34;3.75;1.75;1.00
65680;PMS5003;61747;54.966;73.394;2022-10-16T10:43:48;4.00;4.00;0.00
65680;PMS5003;61747;54.966;73.394;2022-10-16T10:46:29;6.00;5.00;1.00
65680;PMS5003;61747;54.966;73.394;2022-10-16T10:49:07;5.00;4.25;1.75
65680;PMS5003;61747;54.966;73.394;2022-10-16T10:57:02;6.50;5.00;2.00
65680;PMS5003;61747;54.966;73.394;2022-10-16T11:02:04;10.00;7.00;3.00
65680;PMS5003;61747;54.966;73.394;2022-10-16T11:07:17;6.00;4.25;2.00
65680;PMS5003;61747;54.966;73.394;2022-10-16T11:09:47;8.00;6.25;1.00
65680;PMS5003;61747;54.966;73.394;2022-10-16T11:12:27;9.00;6.25;3.00
65680;PMS5003;61747;54.966;73.394;2022-10-16T11:17:41;17.00;10.00;4.00
65680;PMS5003;61747;54.966;73.394;2022-10-16T11:20:24;14.50;10.00;4.00
65680;PMS5003;61747;54.966;73.394;2022-10-16T11:23:00;14.00;7.00;4.00
65680;PMS5003;61747;54.966;73.394;2022-10-16T11:25:30;13.25;8.25;4.00
65680;PMS5003;61747;54.966;73.394;2022-10-16T11:30:43;12.00;7.25;4.50
65680;PMS5003;61747;54.966;73.394;2022-10-16T11:38:30;11.75;6.00;3.00
65680;PMS5003;61747;54.966;73.394;2022-10-16T11:43:43;13.75;9.00;4.00
65680;PMS5003;61747;54.966;73.394;2022-10-16T11:46:17;11.00;8.00;4.00
65680;PMS5003;61747;54.966;73.394;2022-10-16T11:56:30;15.00;11.00;4.00
65680;PMS5003;61747;54.966;73.394;2022-10-16T11:59:05;15.00;10.25;5.00
65680;PMS5003;61747;54.966;73.394;2022-10-16T12:01:43;14.00;12.00;4.00
65680;PMS5003;61747;54.966;73.394;2022-10-16T12:04:14;16.50;12.00;4.25
65680;PMS5003;61747;54.966;73.394;2022-10-16T12:09:36;18.00;14.00;5.75
65680;PMS5003;61747;54.966;73.394;2022-10-16T12:11:59;14.00;13.00;5.00
65680;PMS5003;61747;54.966;73.394;2022-10-16T12:19:20;16.00;13.00;5.00
65680;PMS5003;61747;54.966;73.394;2022-10-16T12:21:46;18.25;17.25;7.00
65680;PMS5003;61747;54.966;73.394;2022-10-16T12:24:31;18.33;17.33;8.33
65680;PMS5003;61747;54.966;73.394;2022-10-16T12:26:57;21.50;19.00;11.50
65680;PMS5003;61747;54.966;73.394;2022-10-16T12:29:32;23.00;20.00;12.00
65680;PMS5003;61747;54.966;73.394;2022-10-16T12:31:58;24.00;21.25;12.50
65680;PMS5003;61747;54.966;73.394;2022-10-16T12:34:41;22.00;20.00;10.00
65680;PMS5003;61747;54.966;73.394;2022-10-16T12:37:53;26.25;22.25;12.00
65680;PMS5003;61747;54.966;73.394;2022-10-16T12:39:54;23.00;19.50;12.00
65680;PMS5003;61747;54.966;73.394;2022-10-16T12:44:53;25.00;18.00;9.50
65680;PMS5003;61747;54.966;73.394;2022-10-16T12:47:38;21.75;17.50;9.00
65680;PMS5003;61747;54.966;73.394;2022-10-16T12:50:24;21.75;20.00;9.75
65680;PMS5003;61747;54.966;73.394;2022-10-16T12:52:51;24.75;20.00;12.00
65680;PMS5003;61747;54.966;73.394;2022-10-16T12:55:22;22.00;19.50;8.50
65680;PMS5003;61747;54.966;73.394;2022-10-16T13:00:18;21.33;18.00;9.00
65680;PMS5003;61747;54.966;73.394;2022-10-16T13:05:35;18.00;17.00;6.00
65680;PMS5003;61747;54.966;73.394;2022-10-16T13:08:12;17.00;16.00;7.00
65680;PMS5003;61747;54.966;73.394;2022-10-16T13:11:03;19.75;15.00;7.00
65680;PMS5003;61747;54.966;73.394;2022-10-16T13:16:07;17.50;16.25;6.50
65680;PMS5003;61747;54.966;73.394;2022-10-16T13:18:48;17.50;16.50;7.50
65680;PMS5003;61747;54.966;73.394;2022-10-16T13:29:01;18.00;14.00;5.00
65680;PMS5003;61747;54.966;73.394;2022-10-16T13:31:27;16.00;14.00;4.50
65680;PMS5003;61747;54.966;73.394;2022-10-16T13:33:54;20.50;17.00;7.00
65680;PMS5003;61747;54.966;73.394;2022-10-16T13:36:25;21.00;17.25;7.00
65680;PMS5003;61747;54.966;73.394;2022-10-16T13:38:58;25.50;19.00;7.50
65680;PMS5003;61747;54.966;73.394;2022-10-16T13:41:25;23.00;20.00;9.25
65680;PMS5003;61747;54.966;73.394;2022-10-16T13:43:51;22.00;20.00;10.00
65680;PMS5003;61747;54.966;73.394;2022-10-16T13:46:22;22.00;19.00;9.25
65680;PMS5003;61747;54.966;73.394;2022-10-16T13:51:23;26.00;22.00;13.00
65680;PMS5003;61747;54.966;73.394;2022-10-16T13:53:49;23.33;20.00;12.00
65680;PMS5003;61747;54.966;73.394;2022-10-16T13:56:18;19.25;16.25;11.00
65680;PMS5003;61747;54.966;73.394;2022-10-16T13:58:45;15.50;13.00;6.00
65680;PMS5003;61747;54.966;73.394;2022-10-16T14:03:40;15.25;11.50;5.25
65680;PMS5003;61747;54.966;73.394;2022-10-16T14:06:12;17.00;14.00;6.00
65680;PMS5003;61747;54.966;73.394;2022-10-16T14:08:42;16.00;14.00;6.00
65680;PMS5003;61747;54.966;73.394;2022-10-16T14:11:08;19.50;15.00;6.50
65680;PMS5003;61747;54.966;73.394;2022-10-16T14:13:36;18.50;13.00;6.50
65680;PMS5003;61747;54.966;73.394;2022-10-16T14:16:05;19.00;13.25;5.00
65680;PMS5003;61747;54.966;73.394;2022-10-16T14:18:32;15.50;12.00;6.00
65680;PMS5003;61747;54.966;73.394;2022-10-16T14:21:11;15.50;12.00;5.00
65680;PMS5003;61747;54.966;73.394;2022-10-16T14:23:38;14.00;11.50;3.00
65680;PMS5003;61747;54.966;73.394;2022-10-16T14:26:15;14.00;10.50;3.50
65680;PMS5003;61747;54.966;73.394;2022-10-16T14:28:46;12.25;9.00;3.00
65680;PMS5003;61747;54.966;73.394;2022-10-16T14:31:26;11.00;10.00;3.00
65680;PMS5003;61747;54.966;73.394;2022-10-16T14:33:52;10.25;8.50;4.00
65680;PMS5003;61747;54.966;73.394;2022-10-16T14:36:18;13.00;9.67;5.00
65680;PMS5003;61747;54.966;73.394;2022-10-16T14:39:03;11.00;7.00;4.00
65680;PMS5003;61747;54.966;73.394;2022-10-16T14:41:30;14.75;10.75;5.00
65680;PMS5003;61747;54.966;73.394;2022-10-16T14:44:05;13.00;8.00;3.00
65680;PMS5003;61747;54.966;73.394;2022-10-16T14:46:34;16.75;11.25;6.75
65680;PMS5003;61747;54.966;73.394;2022-10-16T14:51:39;19.00;16.00;8.00
65680;PMS5003;61747;54.966;73.394;2022-10-16T14:54:10;20.50;17.75;9.00
65680;PMS5003;61747;54.966;73.394;2022-10-16T14:56:46;22.00;18.00;10.00
65680;PMS5003;61747;54.966;73.394;2022-10-16T15:01:46;30.75;26.00;15.50
65680;PMS5003;61747;54.966;73.394;2022-10-16T15:04:12;34.75;26.50;17.00
65680;PMS5003;61747;54.966;73.394;2022-10-16T15:06:38;35.00;27.00;18.00
65680;PMS5003;61747;54.966;73.394;2022-10-16T15:09:04;33.00;27.00;18.00
65680;PMS5003;61747;54.966;73.394;2022-10-16T15:11:29;36.67;28.00;18.33
65680;PMS5003;61747;54.966;73.394;2022-10-16T15:13:56;37.50;29.50;18.50
65680;PMS5003;61747;54.966;73.394;2022-10-16T15:16:22;37.50;28.00;18.50
65680;PMS5003;61747;54.966;73.394;2022-10-16T15:18:48;37.00;28.00;18.00
65680;PMS5003;61747;54.966;73.394;2022-10-16T15:21:21;36.25;29.00;18.00
65680;PMS5003;61747;54.966;73.394;2022-10-16T15:23:48;38.00;29.00;18.75
65680;PMS5003;61747;54.966;73.394;2022-10-16T15:26:14;38.00;30.00;20.00
65680;PMS5003;61747;54.966;73.394;2022-10-16T15:28:39;35.33;28.00;17.33
65680;PMS5003;61747;54.966;73.394;2022-10-16T15:31:05;38.00;28.67;18.00
65680;PMS5003;61747;54.966;73.394;2022-10-16T15:33:31;38.67;29.33;19.33
65680;PMS5003;61747;54.966;73.394;2022-10-16T15:35:59;42.50;32.00;20.00
65680;PMS5003;61747;54.966;73.394;2022-10-16T15:38:25;41.75;31.50;20.75
65680;PMS5003;61747;54.966;73.394;2022-10-16T15:40:58;43.50;33.00;21.00
65680;PMS5003;61747;54.966;73.394;2022-10-16T15:43:23;43.33;33.00;21.33
65680;PMS5003;61747;54.966;73.394;2022-10-16T15:46:00;41.00;31.33;21.00
65680;PMS5003;61747;54.966;73.394;2022-10-16T15:48:27;41.50;31.50;21.00
65680;PMS5003;61747;54.966;73.394;2022-10-16T15:50:52;41.75;32.25;20.50
65680;PMS5003;61747;54.966;73.394;2022-10-16T15:53:25;43.00;33.00;21.00
65680;PMS5003;61747;54.966;73.394;2022-10-16T15:55:51;44.00;33.33;21.00
65680;PMS5003;61747;54.966;73.394;2022-10-16T15:58:28;41.00;30.50;20.00
65680;PMS5003;61747;54.966;73.394;2022-10-16T16:00:54;40.00;31.00;20.00
65680;PMS5003;61747;54.966;73.394;2022-10-16T16:03:20;41.25;31.50;20.50
65680;PMS5003;61747;54.966;73.394;2022-10-16T16:05:45;40.00;30.00;19.00
65680;PMS5003;61747;54.966;73.394;2022-10-16T16:08:11;40.00;31.00;20.00
65680;PMS5003;61747;54.966;73.394;2022-10-16T16:10:37;38.33;30.33;20.00
65680;PMS5003;61747;54.966;73.394;2022-10-16T16:13:03;38.50;30.50;20.00
65680;PMS5003;61747;54.966;73.394;2022-10-16T16:15:28;35.00;29.00;17.00
65680;PMS5003;61747;54.966;73.394;2022-10-16T16:17:59;36.75;29.00;17.50
65680;PMS5003;61747;54.966;73.394;2022-10-16T16:20:27;35.50;28.25;18.00